sensor_id;sensor_type;location;lat;lon;timestamp;P1;durP1;ratioP1;P2;durP2;ratioP2
66112;SDS011;52893;52.870;5.822;2023-03-01T00:00:54;28.65;;;13.13;;
66112;SDS011;52893;52.870;5.822;2023-03-01T00:03:29;27.48;;;12.68;;
66112;SDS011;52893;52.870;5.822;2023-03-01T00:05:56;25.55;;;12.73;;
66112;SDS011;52893;52.870;5.822;2023-03-01T00:08:23;26.70;;;12.88;;
66112;SDS011;52893;52.870;5.822;2023-03-01T00:10:59;26.73;;;13.13;;
66112;SDS011;52893;52.870;5.822;2023-03-01T00:13:27;24.30;;;13.77;;
66112;SDS011;52893;52.870;5.822;2023-03-01T00:15:54;29.13;;;13.68;;
66112;SDS011;52893;52.870;5.822;2023-03-01T00:18:21;49.90;;;19.75;;
66112;SDS011;52893;52.870;5.822;2023-03-01T00:20:50;31.13;;;14.60;;
66112;SDS011;52893;52.870;5.822;2023-03-01T00:23:18;27.45;;;14.32;;
66112;SDS011;52893;52.870;5.822;2023-03-01T00:25:45;33.60;;;17.35;;
66112;SDS011;52893;52.870;5.822;2023-03-01T00:28:13;32.83;;;15.27;;
66112;SDS011;52893;52.870;5.822;2023-03-01T00:30:40;27.20;;;14.23;;
66112;SDS011;52893;52.870;5.822;2023-03-01T00:33:07;29.35;;;14.88;;
66112;SDS011;52893;52.870;5.822;2023-03-01T00:35:35;28.92;;;13.73;;
66112;SDS011;52893;52.870;5.822;2023-03-01T00:38:04;27.85;;;14.85;;
66112;SDS011;52893;52.870;5.822;2023-03-01T00:40:33;24.67;;;13.75;;
66112;SDS011;52893;52.870;5.822;2023-03-01T00:43:01;29.08;;;14.40;;
66112;SDS011;52893;52.870;5.822;2023-03-01T00:45:29;30.42;;;13.15;;
66112;SDS011;52893;52.870;5.822;2023-03-01T00:47:58;27.17;;;13.98;;
66112;SDS011;52893;52.870;5.822;2023-03-01T00:50:25;28.77;;;14.43;;
66112;SDS011;52893;52.870;5.822;2023-03-01T00:52:53;29.33;;;15.52;;
66112;SDS011;52893;52.870;5.822;2023-03-01T00:55:22;28.38;;;14.75;;
66112;SDS011;52893;52.870;5.822;2023-03-01T00:57:50;30.35;;;14.23;;
66112;SDS011;52893;52.870;5.822;2023-03-01T01:00:17;26.00;;;14.15;;
66112;SDS011;52893;52.870;5.822;2023-03-01T01:02:47;29.90;;;14.77;;
66112;SDS011;52893;52.870;5.822;2023-03-01T01:05:14;28.75;;;12.32;;
66112;SDS011;52893;52.870;5.822;2023-03-01T01:07:46;29.23;;;14.50;;
66112;SDS011;52893;52.870;5.822;2023-03-01T01:10:14;26.45;;;13.82;;
66112;SDS011;52893;52.870;5.822;2023-03-01T01:12:45;29.45;;;15.15;;
66112;SDS011;52893;52.870;5.822;2023-03-01T01:15:12;26.52;;;14.20;;
66112;SDS011;52893;52.870;5.822;2023-03-01T01:17:42;25.92;;;13.32;;
66112;SDS011;52893;52.870;5.822;2023-03-01T01:20:10;24.92;;;12.98;;
66112;SDS011;52893;52.870;5.822;2023-03-01T01:22:38;23.75;;;12.45;;
66112;SDS011;52893;52.870;5.822;2023-03-01T01:25:05;29.35;;;13.75;;
66112;SDS011;52893;52.870;5.822;2023-03-01T01:27:33;24.08;;;12.20;;
66112;SDS011;52893;52.870;5.822;2023-03-01T01:30:02;22.42;;;10.20;;
66112;SDS011;52893;52.870;5.822;2023-03-01T01:32:30;18.90;;;8.85;;
66112;SDS011;52893;52.870;5.822;2023-03-01T01:34:57;24.25;;;10.07;;
66112;SDS011;52893;52.870;5.822;2023-03-01T01:37:24;30.95;;;12.35;;
66112;SDS011;52893;52.870;5.822;2023-03-01T01:39:57;16.70;;;9.73;;
66112;SDS011;52893;52.870;5.822;2023-03-01T01:42:25;19.80;;;9.98;;
66112;SDS011;52893;52.870;5.822;2023-03-01T01:47:59;18.80;;;10.32;;
66112;SDS011;52893;52.870;5.822;2023-03-01T01:50:29;21.80;;;11.07;;
66112;SDS011;52893;52.870;5.822;2023-03-01T01:53:04;20.48;;;10.93;;
66112;SDS011;52893;52.870;5.822;2023-03-01T01:55:36;18.98;;;10.57;;
66112;SDS011;52893;52.870;5.822;2023-03-01T01:58:06;22.27;;;11.15;;
66112;SDS011;52893;52.870;5.822;2023-03-01T02:00:37;21.58;;;10.98;;
66112;SDS011;52893;52.870;5.822;2023-03-01T02:03:07;21.02;;;10.77;;
66112;SDS011;52893;52.870;5.822;2023-03-01T02:05:38;18.60;;;10.55;;
66112;SDS011;52893;52.870;5.822;2023-03-01T02:08:10;21.92;;;12.02;;
66112;SDS011;52893;52.870;5.822;2023-03-01T02:10:39;22.27;;;11.60;;
66112;SDS011;52893;52.870;5.822;2023-03-01T02:13:09;23.40;;;11.85;;
66112;SDS011;52893;52.870;5.822;2023-03-01T02:15:38;25.55;;;11.80;;
66112;SDS011;52893;52.870;5.822;2023-03-01T02:18:10;31.08;;;14.80;;
66112;SDS011;52893;52.870;5.822;2023-03-01T02:20:40;28.52;;;13.88;;
66112;SDS011;52893;52.870;5.822;2023-03-01T02:23:15;33.60;;;14.48;;
66112;SDS011;52893;52.870;5.822;2023-03-01T02:25:46;42.33;;;15.40;;
66112;SDS011;52893;52.870;5.822;2023-03-01T02:28:24;26.77;;;14.13;;
66112;SDS011;52893;52.870;5.822;2023-03-01T02:30:58;31.50;;;14.20;;
66112;SDS011;52893;52.870;5.822;2023-03-01T02:33:43;18.38;;;10.10;;
66112;SDS011;52893;52.870;5.822;2023-03-01T02:36:12;37.95;;;11.55;;
66112;SDS011;52893;52.870;5.822;2023-03-01T02:38:43;32.38;;;12.00;;
66112;SDS011;52893;52.870;5.822;2023-03-01T02:41:11;27.58;;;11.50;;
66112;SDS011;52893;52.870;5.822;2023-03-01T02:43:43;24.73;;;10.85;;
66112;SDS011;52893;52.870;5.822;2023-03-01T02:46:13;25.30;;;12.48;;
66112;SDS011;52893;52.870;5.822;2023-03-01T02:48:43;25.90;;;12.13;;
66112;SDS011;52893;52.870;5.822;2023-03-01T02:51:22;40.22;;;13.98;;
66112;SDS011;52893;52.870;5.822;2023-03-01T02:53:58;33.50;;;15.00;;
66112;SDS011;52893;52.870;5.822;2023-03-01T02:56:34;49.67;;;12.88;;
66112;SDS011;52893;52.870;5.822;2023-03-01T02:59:04;16.98;;;9.63;;
66112;SDS011;52893;52.870;5.822;2023-03-01T03:01:31;19.30;;;7.75;;
66112;SDS011;52893;52.870;5.822;2023-03-01T03:04:04;14.65;;;7.20;;
66112;SDS011;52893;52.870;5.822;2023-03-01T03:06:32;22.20;;;8.90;;
66112;SDS011;52893;52.870;5.822;2023-03-01T03:09:00;14.38;;;7.78;;
66112;SDS011;52893;52.870;5.822;2023-03-01T03:11:28;17.75;;;8.35;;
66112;SDS011;52893;52.870;5.822;2023-03-01T03:13:56;20.25;;;9.10;;
66112;SDS011;52893;52.870;5.822;2023-03-01T03:16:25;24.08;;;9.60;;
66112;SDS011;52893;52.870;5.822;2023-03-01T03:18:53;22.27;;;9.88;;
66112;SDS011;52893;52.870;5.822;2023-03-01T03:21:20;21.85;;;9.05;;
66112;SDS011;52893;52.870;5.822;2023-03-01T03:23:47;28.38;;;9.65;;
66112;SDS011;52893;52.870;5.822;2023-03-01T03:26:14;20.75;;;10.60;;
66112;SDS011;52893;52.870;5.822;2023-03-01T03:28:41;22.33;;;12.10;;
66112;SDS011;52893;52.870;5.822;2023-03-01T03:31:09;25.17;;;11.73;;
66112;SDS011;52893;52.870;5.822;2023-03-01T03:33:37;33.15;;;11.55;;
66112;SDS011;52893;52.870;5.822;2023-03-01T03:36:05;18.80;;;10.30;;
66112;SDS011;52893;52.870;5.822;2023-03-01T03:38:32;25.10;;;11.75;;
66112;SDS011;52893;52.870;5.822;2023-03-01T03:41:00;28.08;;;11.88;;
66112;SDS011;52893;52.870;5.822;2023-03-01T03:43:29;35.15;;;12.10;;
66112;SDS011;52893;52.870;5.822;2023-03-01T03:45:58;30.50;;;12.38;;
66112;SDS011;52893;52.870;5.822;2023-03-01T03:48:26;27.83;;;11.98;;
66112;SDS011;52893;52.870;5.822;2023-03-01T03:50:56;40.80;;;13.88;;
66112;SDS011;52893;52.870;5.822;2023-03-01T03:53:24;36.15;;;11.85;;
66112;SDS011;52893;52.870;5.822;2023-03-01T03:55:52;29.13;;;11.55;;
66112;SDS011;52893;52.870;5.822;2023-03-01T03:58:20;39.53;;;10.93;;
66112;SDS011;52893;52.870;5.822;2023-03-01T04:00:51;49.22;;;12.48;;
66112;SDS011;52893;52.870;5.822;2023-03-01T04:03:21;33.80;;;11.40;;
66112;SDS011;52893;52.870;5.822;2023-03-01T04:05:49;31.30;;;11.05;;
66112;SDS011;52893;52.870;5.822;2023-03-01T04:08:19;37.92;;;12.30;;
66112;SDS011;52893;52.870;5.822;2023-03-01T04:10:47;45.55;;;11.05;;
66112;SDS011;52893;52.870;5.822;2023-03-01T04:13:16;40.88;;;11.57;;
66112;SDS011;52893;52.870;5.822;2023-03-01T04:15:46;47.92;;;10.18;;
66112;SDS011;52893;52.870;5.822;2023-03-01T04:18:14;36.90;;;8.38;;
66112;SDS011;52893;52.870;5.822;2023-03-01T04:20:43;38.65;;;8.40;;
66112;SDS011;52893;52.870;5.822;2023-03-01T04:23:11;26.73;;;8.10;;
66112;SDS011;52893;52.870;5.822;2023-03-01T04:25:45;36.03;;;6.15;;
66112;SDS011;52893;52.870;5.822;2023-03-01T04:28:19;26.98;;;6.70;;
66112;SDS011;52893;52.870;5.822;2023-03-01T04:30:47;21.92;;;7.00;;
66112;SDS011;52893;52.870;5.822;2023-03-01T04:33:14;18.58;;;7.28;;
66112;SDS011;52893;52.870;5.822;2023-03-01T04:35:41;24.45;;;7.13;;
66112;SDS011;52893;52.870;5.822;2023-03-01T04:38:08;27.75;;;7.38;;
66112;SDS011;52893;52.870;5.822;2023-03-01T04:40:36;7.50;;;6.22;;
66112;SDS011;52893;52.870;5.822;2023-03-01T04:43:05;27.15;;;6.10;;
66112;SDS011;52893;52.870;5.822;2023-03-01T04:45:32;17.65;;;6.95;;
66112;SDS011;52893;52.870;5.822;2023-03-01T04:48:01;21.05;;;7.13;;
66112;SDS011;52893;52.870;5.822;2023-03-01T04:50:29;16.27;;;6.25;;
66112;SDS011;52893;52.870;5.822;2023-03-01T04:52:56;14.98;;;7.40;;
66112;SDS011;52893;52.870;5.822;2023-03-01T04:55:25;14.38;;;6.80;;
66112;SDS011;52893;52.870;5.822;2023-03-01T04:57:53;17.48;;;6.82;;
66112;SDS011;52893;52.870;5.822;2023-03-01T05:00:22;26.25;;;7.18;;
66112;SDS011;52893;52.870;5.822;2023-03-01T05:02:50;19.08;;;6.97;;
66112;SDS011;52893;52.870;5.822;2023-03-01T05:05:24;16.35;;;5.53;;
66112;SDS011;52893;52.870;5.822;2023-03-01T05:07:53;15.60;;;6.82;;
66112;SDS011;52893;52.870;5.822;2023-03-01T05:10:22;29.90;;;7.82;;
66112;SDS011;52893;52.870;5.822;2023-03-01T05:12:50;15.25;;;8.00;;
66112;SDS011;52893;52.870;5.822;2023-03-01T05:15:19;13.02;;;7.38;;
66112;SDS011;52893;52.870;5.822;2023-03-01T05:17:49;12.35;;;7.60;;
66112;SDS011;52893;52.870;5.822;2023-03-01T05:20:16;11.02;;;6.90;;
66112;SDS011;52893;52.870;5.822;2023-03-01T05:22:48;13.30;;;7.20;;
66112;SDS011;52893;52.870;5.822;2023-03-01T05:25:15;21.63;;;7.55;;
66112;SDS011;52893;52.870;5.822;2023-03-01T05:27:43;32.80;;;7.05;;
66112;SDS011;52893;52.870;5.822;2023-03-01T05:30:11;26.10;;;7.00;;
66112;SDS011;52893;52.870;5.822;2023-03-01T05:32:44;16.67;;;7.37;;
66112;SDS011;52893;52.870;5.822;2023-03-01T05:35:14;39.97;;;7.95;;
66112;SDS011;52893;52.870;5.822;2023-03-01T05:37:43;24.25;;;6.53;;
66112;SDS011;52893;52.870;5.822;2023-03-01T05:40:12;36.90;;;7.55;;
66112;SDS011;52893;52.870;5.822;2023-03-01T05:42:42;27.95;;;7.55;;
66112;SDS011;52893;52.870;5.822;2023-03-01T05:45:10;29.77;;;7.35;;
66112;SDS011;52893;52.870;5.822;2023-03-01T05:47:39;35.00;;;7.45;;
66112;SDS011;52893;52.870;5.822;2023-03-01T05:50:10;19.80;;;7.10;;
66112;SDS011;52893;52.870;5.822;2023-03-01T05:52:40;15.43;;;7.18;;
66112;SDS011;52893;52.870;5.822;2023-03-01T05:55:07;8.02;;;4.63;;
66112;SDS011;52893;52.870;5.822;2023-03-01T05:57:35;20.45;;;7.63;;
66112;SDS011;52893;52.870;5.822;2023-03-01T06:00:02;19.70;;;7.80;;
66112;SDS011;52893;52.870;5.822;2023-03-01T06:02:38;29.48;;;7.90;;
66112;SDS011;52893;52.870;5.822;2023-03-01T06:05:06;9.75;;;6.80;;
66112;SDS011;52893;52.870;5.822;2023-03-01T06:07:35;12.50;;;7.35;;
66112;SDS011;52893;52.870;5.822;2023-03-01T06:10:04;17.88;;;7.00;;
66112;SDS011;52893;52.870;5.822;2023-03-01T06:12:33;9.63;;;6.30;;
66112;SDS011;52893;52.870;5.822;2023-03-01T06:15:01;12.90;;;7.68;;
66112;SDS011;52893;52.870;5.822;2023-03-01T06:17:30;12.38;;;8.15;;
66112;SDS011;52893;52.870;5.822;2023-03-01T06:19:58;14.48;;;8.20;;
66112;SDS011;52893;52.870;5.822;2023-03-01T06:22:26;10.48;;;7.55;;
66112;SDS011;52893;52.870;5.822;2023-03-01T06:24:54;20.67;;;7.63;;
66112;SDS011;52893;52.870;5.822;2023-03-01T06:27:22;22.80;;;8.25;;
66112;SDS011;52893;52.870;5.822;2023-03-01T06:29:49;17.95;;;8.15;;
66112;SDS011;52893;52.870;5.822;2023-03-01T06:32:17;12.23;;;7.57;;
66112;SDS011;52893;52.870;5.822;2023-03-01T06:34:44;13.23;;;7.93;;
66112;SDS011;52893;52.870;5.822;2023-03-01T06:37:11;13.05;;;8.07;;
66112;SDS011;52893;52.870;5.822;2023-03-01T06:39:38;12.82;;;7.32;;
66112;SDS011;52893;52.870;5.822;2023-03-01T06:42:06;12.68;;;6.28;;
66112;SDS011;52893;52.870;5.822;2023-03-01T06:44:35;13.43;;;7.18;;
66112;SDS011;52893;52.870;5.822;2023-03-01T06:47:02;13.10;;;8.07;;
66112;SDS011;52893;52.870;5.822;2023-03-01T06:49:30;14.18;;;7.90;;
66112;SDS011;52893;52.870;5.822;2023-03-01T06:51:57;9.95;;;6.45;;
66112;SDS011;52893;52.870;5.822;2023-03-01T06:54:24;10.35;;;6.63;;
66112;SDS011;52893;52.870;5.822;2023-03-01T06:56:51;11.38;;;8.23;;
66112;SDS011;52893;52.870;5.822;2023-03-01T06:59:19;12.18;;;6.60;;
66112;SDS011;52893;52.870;5.822;2023-03-01T07:01:47;10.75;;;7.35;;
66112;SDS011;52893;52.870;5.822;2023-03-01T07:04:14;10.50;;;6.80;;
66112;SDS011;52893;52.870;5.822;2023-03-01T07:06:41;9.25;;;6.05;;
66112;SDS011;52893;52.870;5.822;2023-03-01T07:09:11;7.95;;;6.05;;
66112;SDS011;52893;52.870;5.822;2023-03-01T07:11:38;8.52;;;6.50;;
66112;SDS011;52893;52.870;5.822;2023-03-01T07:14:06;7.53;;;5.05;;
66112;SDS011;52893;52.870;5.822;2023-03-01T07:16:33;9.45;;;5.82;;
66112;SDS011;52893;52.870;5.822;2023-03-01T07:19:01;8.75;;;6.20;;
66112;SDS011;52893;52.870;5.822;2023-03-01T07:21:29;8.85;;;6.03;;
66112;SDS011;52893;52.870;5.822;2023-03-01T07:23:56;8.68;;;6.03;;
66112;SDS011;52893;52.870;5.822;2023-03-01T07:26:23;5.97;;;4.35;;
66112;SDS011;52893;52.870;5.822;2023-03-01T07:28:50;8.35;;;6.18;;
66112;SDS011;52893;52.870;5.822;2023-03-01T07:31:17;9.02;;;6.90;;
66112;SDS011;52893;52.870;5.822;2023-03-01T07:33:45;9.35;;;6.65;;
66112;SDS011;52893;52.870;5.822;2023-03-01T07:36:13;8.55;;;5.55;;
66112;SDS011;52893;52.870;5.822;2023-03-01T07:38:40;8.73;;;5.75;;
66112;SDS011;52893;52.870;5.822;2023-03-01T07:41:07;9.00;;;5.95;;
66112;SDS011;52893;52.870;5.822;2023-03-01T07:43:34;9.93;;;6.70;;
66112;SDS011;52893;52.870;5.822;2023-03-01T07:46:02;11.75;;;8.30;;
66112;SDS011;52893;52.870;5.822;2023-03-01T07:48:30;14.88;;;8.85;;
66112;SDS011;52893;52.870;5.822;2023-03-01T07:50:58;17.13;;;9.70;;
66112;SDS011;52893;52.870;5.822;2023-03-01T07:53:27;16.80;;;10.13;;
66112;SDS011;52893;52.870;5.822;2023-03-01T07:56:00;14.23;;;9.52;;
66112;SDS011;52893;52.870;5.822;2023-03-01T07:58:27;13.30;;;8.60;;
66112;SDS011;52893;52.870;5.822;2023-03-01T08:00:55;14.60;;;9.60;;
66112;SDS011;52893;52.870;5.822;2023-03-01T08:03:22;19.73;;;11.25;;
66112;SDS011;52893;52.870;5.822;2023-03-01T08:05:49;16.08;;;8.70;;
66112;SDS011;52893;52.870;5.822;2023-03-01T08:08:16;14.77;;;9.20;;
66112;SDS011;52893;52.870;5.822;2023-03-01T08:10:45;13.15;;;8.52;;
66112;SDS011;52893;52.870;5.822;2023-03-01T08:13:12;10.93;;;7.07;;
66112;SDS011;52893;52.870;5.822;2023-03-01T08:15:39;13.52;;;8.85;;
66112;SDS011;52893;52.870;5.822;2023-03-01T08:18:06;15.02;;;10.00;;
66112;SDS011;52893;52.870;5.822;2023-03-01T08:20:33;17.05;;;9.90;;
66112;SDS011;52893;52.870;5.822;2023-03-01T08:23:00;12.40;;;9.30;;
66112;SDS011;52893;52.870;5.822;2023-03-01T08:25:28;11.98;;;8.35;;
66112;SDS011;52893;52.870;5.822;2023-03-01T08:27:56;12.68;;;8.63;;
66112;SDS011;52893;52.870;5.822;2023-03-01T08:30:23;12.18;;;7.43;;
66112;SDS011;52893;52.870;5.822;2023-03-01T08:32:51;20.33;;;12.15;;
66112;SDS011;52893;52.870;5.822;2023-03-01T08:35:18;21.70;;;12.20;;
66112;SDS011;52893;52.870;5.822;2023-03-01T08:37:46;19.05;;;12.57;;
66112;SDS011;52893;52.870;5.822;2023-03-01T08:40:14;19.02;;;11.70;;
66112;SDS011;52893;52.870;5.822;2023-03-01T08:42:41;20.42;;;9.68;;
66112;SDS011;52893;52.870;5.822;2023-03-01T08:45:11;22.40;;;12.57;;
66112;SDS011;52893;52.870;5.822;2023-03-01T08:47:39;20.88;;;12.63;;
66112;SDS011;52893;52.870;5.822;2023-03-01T08:50:07;21.42;;;12.43;;
66112;SDS011;52893;52.870;5.822;2023-03-01T08:52:35;18.83;;;11.77;;
66112;SDS011;52893;52.870;5.822;2023-03-01T08:55:02;20.42;;;11.30;;
66112;SDS011;52893;52.870;5.822;2023-03-01T08:57:30;19.50;;;12.02;;
66112;SDS011;52893;52.870;5.822;2023-03-01T09:00:00;19.15;;;11.85;;
66112;SDS011;52893;52.870;5.822;2023-03-01T09:02:30;28.40;;;14.32;;
66112;SDS011;52893;52.870;5.822;2023-03-01T09:04:57;25.63;;;13.27;;
66112;SDS011;52893;52.870;5.822;2023-03-01T09:07:25;23.02;;;14.02;;
66112;SDS011;52893;52.870;5.822;2023-03-01T09:09:53;22.58;;;13.70;;
66112;SDS011;52893;52.870;5.822;2023-03-01T09:12:21;26.13;;;14.93;;
66112;SDS011;52893;52.870;5.822;2023-03-01T09:14:50;24.75;;;14.25;;
66112;SDS011;52893;52.870;5.822;2023-03-01T09:17:17;25.65;;;16.25;;
66112;SDS011;52893;52.870;5.822;2023-03-01T09:19:48;22.13;;;13.70;;
66112;SDS011;52893;52.870;5.822;2023-03-01T09:22:15;26.30;;;14.70;;
66112;SDS011;52893;52.870;5.822;2023-03-01T09:24:43;23.35;;;14.40;;
66112;SDS011;52893;52.870;5.822;2023-03-01T09:27:10;28.88;;;15.10;;
66112;SDS011;52893;52.870;5.822;2023-03-01T09:29:38;33.33;;;17.10;;
66112;SDS011;52893;52.870;5.822;2023-03-01T09:32:05;26.58;;;16.05;;
66112;SDS011;52893;52.870;5.822;2023-03-01T09:34:33;28.52;;;17.40;;
66112;SDS011;52893;52.870;5.822;2023-03-01T09:37:23;30.42;;;16.70;;
66112;SDS011;52893;52.870;5.822;2023-03-01T09:39:50;30.40;;;17.85;;
66112;SDS011;52893;52.870;5.822;2023-03-01T09:42:17;32.85;;;17.23;;
66112;SDS011;52893;52.870;5.822;2023-03-01T09:44:46;23.33;;;13.18;;
66112;SDS011;52893;52.870;5.822;2023-03-01T09:47:17;22.65;;;14.10;;
66112;SDS011;52893;52.870;5.822;2023-03-01T09:49:48;28.10;;;15.18;;
66112;SDS011;52893;52.870;5.822;2023-03-01T09:52:26;28.65;;;16.17;;
66112;SDS011;52893;52.870;5.822;2023-03-01T09:55:00;27.35;;;15.63;;
66112;SDS011;52893;52.870;5.822;2023-03-01T09:57:29;27.35;;;14.63;;
66112;SDS011;52893;52.870;5.822;2023-03-01T10:00:15;29.70;;;17.05;;
66112;SDS011;52893;52.870;5.822;2023-03-01T10:02:51;29.02;;;16.13;;
66112;SDS011;52893;52.870;5.822;2023-03-01T10:05:29;22.65;;;13.80;;
66112;SDS011;52893;52.870;5.822;2023-03-01T10:08:13;24.73;;;15.18;;
66112;SDS011;52893;52.870;5.822;2023-03-01T10:10:59;23.15;;;13.85;;
66112;SDS011;52893;52.870;5.822;2023-03-01T10:13:29;26.48;;;15.23;;
66112;SDS011;52893;52.870;5.822;2023-03-01T10:16:05;28.77;;;15.90;;
66112;SDS011;52893;52.870;5.822;2023-03-01T10:18:38;35.60;;;18.38;;
66112;SDS011;52893;52.870;5.822;2023-03-01T10:21:12;38.85;;;19.25;;
66112;SDS011;52893;52.870;5.822;2023-03-01T10:23:43;28.67;;;15.82;;
66112;SDS011;52893;52.870;5.822;2023-03-01T10:29:01;22.50;;;12.68;;
66112;SDS011;52893;52.870;5.822;2023-03-01T10:31:35;26.80;;;14.30;;
66112;SDS011;52893;52.870;5.822;2023-03-01T10:34:13;23.75;;;13.52;;
66112;SDS011;52893;52.870;5.822;2023-03-01T10:36:42;21.52;;;12.15;;
66112;SDS011;52893;52.870;5.822;2023-03-01T10:39:13;17.67;;;11.48;;
66112;SDS011;52893;52.870;5.822;2023-03-01T10:41:57;16.60;;;10.80;;
66112;SDS011;52893;52.870;5.822;2023-03-01T10:44:36;16.92;;;9.30;;
66112;SDS011;52893;52.870;5.822;2023-03-01T10:47:12;16.38;;;9.40;;
66112;SDS011;52893;52.870;5.822;2023-03-01T10:49:51;10.40;;;6.75;;
66112;SDS011;52893;52.870;5.822;2023-03-01T10:52:30;11.85;;;7.40;;
66112;SDS011;52893;52.870;5.822;2023-03-01T10:55:01;11.20;;;7.95;;
66112;SDS011;52893;52.870;5.822;2023-03-01T10:57:32;8.43;;;6.68;;
66112;SDS011;52893;52.870;5.822;2023-03-01T11:03:10;16.25;;;9.32;;
66112;SDS011;52893;52.870;5.822;2023-03-01T11:05:49;15.88;;;8.55;;
66112;SDS011;52893;52.870;5.822;2023-03-01T11:08:35;11.07;;;7.95;;
66112;SDS011;52893;52.870;5.822;2023-03-01T11:13:57;14.23;;;8.95;;
66112;SDS011;52893;52.870;5.822;2023-03-01T11:16:29;17.33;;;9.43;;
66112;SDS011;52893;52.870;5.822;2023-03-01T11:19:00;12.55;;;8.20;;
66112;SDS011;52893;52.870;5.822;2023-03-01T11:21:54;16.60;;;8.23;;
66112;SDS011;52893;52.870;5.822;2023-03-01T11:24:27;12.90;;;8.68;;
66112;SDS011;52893;52.870;5.822;2023-03-01T11:27:06;11.40;;;7.85;;
66112;SDS011;52893;52.870;5.822;2023-03-01T11:29:43;11.82;;;7.82;;
66112;SDS011;52893;52.870;5.822;2023-03-01T11:32:16;11.77;;;7.55;;
66112;SDS011;52893;52.870;5.822;2023-03-01T11:34:47;13.60;;;8.93;;
66112;SDS011;52893;52.870;5.822;2023-03-01T11:37:22;12.43;;;7.90;;
66112;SDS011;52893;52.870;5.822;2023-03-01T11:39:59;10.60;;;6.60;;
66112;SDS011;52893;52.870;5.822;2023-03-01T11:42:45;10.52;;;7.80;;
66112;SDS011;52893;52.870;5.822;2023-03-01T11:45:16;12.55;;;7.72;;
66112;SDS011;52893;52.870;5.822;2023-03-01T11:47:51;11.65;;;7.72;;
66112;SDS011;52893;52.870;5.822;2023-03-01T11:50:28;13.27;;;8.07;;
66112;SDS011;52893;52.870;5.822;2023-03-01T11:53:04;13.20;;;8.45;;
66112;SDS011;52893;52.870;5.822;2023-03-01T11:55:58;12.30;;;8.13;;
66112;SDS011;52893;52.870;5.822;2023-03-01T11:58:45;17.85;;;7.50;;
66112;SDS011;52893;52.870;5.822;2023-03-01T12:01:31;12.65;;;8.27;;
66112;SDS011;52893;52.870;5.822;2023-03-01T12:07:18;14.80;;;7.88;;
66112;SDS011;52893;52.870;5.822;2023-03-01T12:09:56;15.43;;;8.98;;
66112;SDS011;52893;52.870;5.822;2023-03-01T12:12:46;10.27;;;6.85;;
66112;SDS011;52893;52.870;5.822;2023-03-01T12:18:44;12.80;;;8.00;;
66112;SDS011;52893;52.870;5.822;2023-03-01T12:21:21;11.10;;;6.72;;
66112;SDS011;52893;52.870;5.822;2023-03-01T12:24:01;13.35;;;7.90;;
66112;SDS011;52893;52.870;5.822;2023-03-01T12:26:42;14.18;;;7.35;;
66112;SDS011;52893;52.870;5.822;2023-03-01T12:29:22;14.27;;;9.32;;
66112;SDS011;52893;52.870;5.822;2023-03-01T12:32:02;13.25;;;7.65;;
66112;SDS011;52893;52.870;5.822;2023-03-01T12:37:44;14.48;;;8.88;;
66112;SDS011;52893;52.870;5.822;2023-03-01T12:40:25;13.35;;;7.35;;
66112;SDS011;52893;52.870;5.822;2023-03-01T12:48:41;14.75;;;7.72;;
66112;SDS011;52893;52.870;5.822;2023-03-01T12:51:15;14.60;;;7.70;;
66112;SDS011;52893;52.870;5.822;2023-03-01T12:53:46;12.60;;;7.90;;
66112;SDS011;52893;52.870;5.822;2023-03-01T12:56:18;13.70;;;8.75;;
66112;SDS011;52893;52.870;5.822;2023-03-01T12:58:51;13.73;;;8.15;;
66112;SDS011;52893;52.870;5.822;2023-03-01T13:01:25;14.57;;;7.50;;
66112;SDS011;52893;52.870;5.822;2023-03-01T13:04:12;13.57;;;8.20;;
66112;SDS011;52893;52.870;5.822;2023-03-01T13:06:55;12.40;;;6.30;;
66112;SDS011;52893;52.870;5.822;2023-03-01T13:09:29;12.30;;;7.20;;
66112;SDS011;52893;52.870;5.822;2023-03-01T13:12:03;12.10;;;6.78;;
66112;SDS011;52893;52.870;5.822;2023-03-01T13:14:37;17.10;;;8.65;;
66112;SDS011;52893;52.870;5.822;2023-03-01T13:17:31;16.52;;;7.75;;
66112;SDS011;52893;52.870;5.822;2023-03-01T13:20:13;16.55;;;8.80;;
66112;SDS011;52893;52.870;5.822;2023-03-01T13:22:42;16.33;;;8.85;;
66112;SDS011;52893;52.870;5.822;2023-03-01T13:25:14;16.90;;;8.80;;
66112;SDS011;52893;52.870;5.822;2023-03-01T13:27:43;22.35;;;11.15;;
66112;SDS011;52893;52.870;5.822;2023-03-01T13:30:38;15.95;;;8.60;;
66112;SDS011;52893;52.870;5.822;2023-03-01T13:36:10;18.52;;;9.82;;
66112;SDS011;52893;52.870;5.822;2023-03-01T13:38:44;18.88;;;9.00;;
66112;SDS011;52893;52.870;5.822;2023-03-01T13:41:13;16.30;;;7.30;;
66112;SDS011;52893;52.870;5.822;2023-03-01T13:43:41;18.60;;;8.82;;
66112;SDS011;52893;52.870;5.822;2023-03-01T13:46:11;13.95;;;7.93;;
66112;SDS011;52893;52.870;5.822;2023-03-01T13:48:44;18.85;;;9.80;;
66112;SDS011;52893;52.870;5.822;2023-03-01T13:51:15;13.48;;;8.15;;
66112;SDS011;52893;52.870;5.822;2023-03-01T13:53:49;15.57;;;8.00;;
66112;SDS011;52893;52.870;5.822;2023-03-01T13:56:17;16.42;;;8.68;;
66112;SDS011;52893;52.870;5.822;2023-03-01T13:58:48;10.57;;;6.13;;
66112;SDS011;52893;52.870;5.822;2023-03-01T14:01:21;12.38;;;6.75;;
66112;SDS011;52893;52.870;5.822;2023-03-01T14:03:50;13.93;;;7.82;;
66112;SDS011;52893;52.870;5.822;2023-03-01T14:06:21;14.30;;;8.70;;
66112;SDS011;52893;52.870;5.822;2023-03-01T14:09:00;15.65;;;6.72;;
66112;SDS011;52893;52.870;5.822;2023-03-01T14:11:48;9.32;;;6.28;;
66112;SDS011;52893;52.870;5.822;2023-03-01T14:14:30;15.93;;;7.85;;
66112;SDS011;52893;52.870;5.822;2023-03-01T14:17:21;9.75;;;5.53;;
66112;SDS011;52893;52.870;5.822;2023-03-01T14:20:01;13.98;;;7.72;;
66112;SDS011;52893;52.870;5.822;2023-03-01T14:22:39;13.73;;;6.30;;
66112;SDS011;52893;52.870;5.822;2023-03-01T14:25:17;13.35;;;7.28;;
66112;SDS011;52893;52.870;5.822;2023-03-01T14:27:51;12.38;;;6.07;;
66112;SDS011;52893;52.870;5.822;2023-03-01T14:30:23;15.57;;;7.65;;
66112;SDS011;52893;52.870;5.822;2023-03-01T14:32:53;16.48;;;8.85;;
66112;SDS011;52893;52.870;5.822;2023-03-01T14:35:23;16.85;;;8.60;;
66112;SDS011;52893;52.870;5.822;2023-03-01T14:37:53;20.58;;;8.23;;
66112;SDS011;52893;52.870;5.822;2023-03-01T14:40:23;14.55;;;8.57;;
66112;SDS011;52893;52.870;5.822;2023-03-01T14:42:53;16.40;;;8.60;;
66112;SDS011;52893;52.870;5.822;2023-03-01T14:45:24;17.13;;;8.77;;
66112;SDS011;52893;52.870;5.822;2023-03-01T14:47:53;21.65;;;10.07;;
66112;SDS011;52893;52.870;5.822;2023-03-01T14:50:24;13.55;;;8.02;;
66112;SDS011;52893;52.870;5.822;2023-03-01T14:52:55;12.82;;;8.20;;
66112;SDS011;52893;52.870;5.822;2023-03-01T14:55:26;12.15;;;7.38;;
66112;SDS011;52893;52.870;5.822;2023-03-01T14:57:57;15.20;;;8.57;;
66112;SDS011;52893;52.870;5.822;2023-03-01T15:00:25;14.70;;;7.28;;
66112;SDS011;52893;52.870;5.822;2023-03-01T15:02:54;19.77;;;8.73;;
66112;SDS011;52893;52.870;5.822;2023-03-01T15:05:28;18.42;;;9.23;;
66112;SDS011;52893;52.870;5.822;2023-03-01T15:07:59;17.70;;;9.50;;
66112;SDS011;52893;52.870;5.822;2023-03-01T15:10:28;19.35;;;9.75;;
66112;SDS011;52893;52.870;5.822;2023-03-01T15:13:09;18.95;;;8.45;;
66112;SDS011;52893;52.870;5.822;2023-03-01T15:15:40;15.88;;;8.23;;
66112;SDS011;52893;52.870;5.822;2023-03-01T15:18:16;17.83;;;8.63;;
66112;SDS011;52893;52.870;5.822;2023-03-01T15:20:45;10.88;;;5.93;;
66112;SDS011;52893;52.870;5.822;2023-03-01T15:23:18;13.93;;;7.80;;